x

St Georges - 8nm Nw Of Crescent City, Ca (46027) Wave Buoy

10:50pm - Sun 30th Apr 2017 All times are PDT. -7 hours from GMT.

  • Sig Wave height 5.6ft
  • Swell Direction
  • Peak Period 6s
  • Average Period 5s
  • Wind
    25mph, 31mph gusts
  • Sea Temp 52°f
  • Air Temp 53°f
  • Sea Pressure 1025.2mb
  • St Georges - 8nm Nw Of Crescent City, Ca
  • St Georges - 8nm Nw Of Crescent City, Ca

More Historic Weather Station data

Upgrade to MSW Pro to gain access to the past 30 days of data for over 8000 Wavebouys and Weather Stations around the globe.

Join Pro

Comparision Forecast

View Surf forecast
   
Sun 04/30 10:50pm 5.5ft 6s 5s 25 31 mph 1025.2mb 52f 53f
9:50pm 5.5ft 6s 5s 22 25 mph 1024.6mb 52f 53f
8:50pm 6ft 6s  -  22 27 mph 1024.3mb 52f 53f
7:50pm 6.5ft 6s 5s 27 34 mph 1024.1mb 52f 53f
6:50pm 6ft 6s 5s 27 34 mph 1024.5mb 52f 53f
5:50pm 5ft 5s 5s 29 36 mph 1024.7mb 52f 53f
4:50pm 4.5ft 5s 5s 25 29 mph 1025mb 53f 53f
3:50pm 4.5ft 5s 5s 22 27 mph 1025.7mb 53f 53f
2:50pm 4.5ft 5s 5s 25 29 mph 1026mb 53f 53f
1:50pm 3.5ft 4s 4s 22 27 mph 1026.5mb 53f 52f
12:50pm 2.5ft 11s 6s 18 20 mph 1027.5mb 54f 53f
11:50am 2.5ft 10s 6s 9
mph
1028.1mb 53f 53f
10:50am 2.5ft 10s 6s 4 7 mph 1027.6mb 54f 53f
9:50am 3ft 11s 6s  -  2 mph 1027mb 53f 53f
8:50am 3.5ft 10s 6s 2
mph
1026.6mb 53f 51f
7:50am 3ft 10s 6s 4 7 mph 1026.1mb 52f 51f
5:50am 3.5ft 11s 6s 9
mph
1025.7mb 53f 52f
4:50am 3.5ft 11s 7s 2 4 mph 1025.3mb 53f 52f
3:50am 3ft 11s 6s 4 7 mph 1025.2mb 53f 51f
2:50am 3.5ft 11s 7s 7
mph
1025.1mb 53f 51f
1:50am 3.5ft 9s 6s 7
mph
1025.6mb 53f 52f
12:50am 4ft 11s 6s 9 11 mph 1025.4mb 53f 52f
Sat 04/29 11:50pm 4ft 11s 6s 11
mph
1025.1mb 53f 53f
10:50pm 4.5ft 10s 6s 16 18 mph 1025.3mb 53f 53f
9:50pm 4ft 11s 5s 16 20 mph 1025.3mb 53f 53f
8:50pm 4.5ft 9s 5s 18 20 mph 1024.6mb 53f 53f
7:50pm 4.5ft 11s 5s 20 25 mph 1023.7mb 53f 54f
5:50pm 4.5ft 10s 5s 20 25 mph 1023.6mb 53f 53f
4:50pm 4.5ft 10s 5s 18 25 mph 1023.4mb 53f 53f
3:50pm 4ft 10s 5s 18 20 mph 1023.8mb 53f 53f
2:50pm 3.5ft 11s 5s 13 18 mph 1023.9mb 53f 54f
1:50pm 3.5ft 10s 6s 13 16 mph 1024.4mb 54f 53f
12:50pm 4ft 11s 6s 16 18 mph 1024.6mb 53f 53f
11:50am 4ft 11s 6s 13 16 mph 1024.8mb 53f 52f
10:50am 4ft 10s 6s 4 7 mph 1024.7mb 53f 52f
9:50am 4ft 11s 6s 4 7 mph 1025.2mb 53f 51f
8:50am 4.5ft 11s 6s  -  2 mph 1024.8mb 52f 52f
7:50am 4.5ft 11s 6s 4
mph
1024.4mb 51f 51f
6:50am 4.5ft 8s 6s 2 4 mph 1023.6mb 51f 50f
5:50am 5ft 11s 7s 2
mph
1023.2mb 51f 50f
4:50am 5ft 11s 6s 2 4 mph 1023.2mb 52f 51f
3:50am 5ft 6s 6s 4
mph
1023.1mb 52f 51f
2:50am 5.5ft 11s 6s 9 11 mph 1022.9mb 52f 52f
1:50am 5.5ft 8s 6s 16 20 mph 1022.8mb 52f 53f
12:50am 6.5ft 7s 6s 20 22 mph 1022.2mb 52f 53f
Fri 04/28 11:50pm 6.5ft 11s 6s 20 25 mph 1021.9mb 53f 53f
10:50pm 7ft 6s 6s 25 29 mph 1021.9mb 53f 53f
9:50pm 7.5ft 11s 6s 29 34 mph 1021.6mb 53f 53f
8:50pm 8.5ft 6s 5s 29 36 mph 1021.1mb 53f 53f
7:50pm 8ft 7s 6s 31 38 mph 1020.8mb 53f 53f
6:50pm 8ft 7s 6s 31 38 mph 1020.7mb 53f 54f
5:50pm 8.5ft 7s 6s 34 40 mph 1020.9mb 53f 53f
4:50pm 8.5ft 7s 6s 34 40 mph 1021.2mb 53f 53f
3:50pm 8.5ft 6s 6s 34 40 mph 1022mb 53f 53f
2:50pm 8ft 6s 6s 31 38 mph 1022.8mb 53f 53f
1:50pm 7ft 11s 5s 29 36 mph 1023.1mb 53f 53f
12:50pm 7ft 12s 5s 29 34 mph 1023.8mb 53f 52f
11:50am 6ft 12s 6s 27 31 mph 1024mb 53f 52f
10:50am 5.5ft 13s 5s 25 27 mph 1024.4mb 53f 51f
9:50am 6ft 11s 6s 22 25 mph 1024.7mb 53f 51f
8:50am 6ft 11s 6s 18 20 mph 1025mb 53f 51f
7:50am 6.5ft 11s 7s 20 22 mph 1024.9mb 53f 51f
6:50am 6ft 9s 7s 18 22 mph 1024.1mb 53f 51f
4:50am 6ft 12s  -  20 25 mph 1023.1mb 53f 51f
3:50am 7ft 10s 7s 22 25 mph 1023mb 53f 51f
2:50am 6.5ft 11s 6s 22 27 mph 1023.1mb 53f 51f
1:50am 6.5ft 12s 6s 22 27 mph 1023mb 53f 52f
12:50am 7ft 11s 6s 20 25 mph 1023mb 54f 52f
Thu 04/27 11:50pm 7ft 12s 6s 25 29 mph 1022.8mb 54f 52f
10:50pm 6.5ft 11s 6s 22 29 mph 1023.1mb 54f 52f
9:50pm 6.5ft 12s 6s 22 25 mph 1023.1mb 54f 52f
8:50pm 6.5ft 11s 6s 25 29 mph 1022.2mb 54f 53f
7:50pm 6.5ft 12s 6s 25 29 mph 1022.3mb 54f 53f
6:50pm 7.5ft 10s 7s 27 31 mph 1021.9mb 54f 53f
4:50pm 7.5ft 10s 7s 20 22 mph 1022.3mb 55f 53f
3:50pm 7ft 11s 7s 20 22 mph 1022.7mb 55f 53f
2:50pm 7ft 11s 7s 18 22 mph 1022.6mb 55f 53f
1:50pm 6ft 11s 7s 18 22 mph 1022.5mb 55f 52f
12:50pm 7ft 11s 7s 16 20 mph 1022.4mb 55f 52f
11:50am 6.5ft 10s 7s 16 18 mph 1022.8mb 54f 52f
10:50am 6ft 11s 7s 13 18 mph 1022.7mb 54f 52f
9:50am 6ft 11s 7s 7 9 mph 1023mb 54f 50f
8:50am 6.5ft 11s 7s 9 11 mph 1022.6mb 53f 51f
7:50am 6.5ft 11s 7s 11 13 mph 1022.4mb 53f 51f